createdAt,value
2018-02-27T00:00:05.304Z,8.70
2018-02-27T00:01:12.698Z,7.35
2018-02-27T00:02:18.837Z,8.23
2018-02-27T00:03:25.032Z,7.80
2018-02-27T00:04:31.166Z,7.50
2018-02-27T00:05:37.281Z,7.40
2018-02-27T00:06:44.370Z,7.15
2018-02-27T00:07:50.521Z,7.10
2018-02-27T00:08:56.661Z,7.25
2018-02-27T00:10:02.827Z,8.25
2018-02-27T00:11:09.007Z,6.30
2018-02-27T00:12:14.784Z,7.43
2018-02-27T00:13:20.895Z,7.55
2018-02-27T00:14:27.057Z,7.28
2018-02-27T00:15:33.251Z,7.20
2018-02-27T00:16:39.240Z,7.00
2018-02-27T00:17:45.373Z,8.18
2018-02-27T00:18:51.504Z,7.30
2018-02-27T00:19:57.619Z,8.73
2018-02-27T00:21:03.793Z,6.68
2018-02-27T00:22:09.241Z,7.40
2018-02-27T00:23:14.908Z,7.35
2018-02-27T00:24:21.056Z,7.40
2018-02-27T00:25:27.234Z,8.57
2018-02-27T00:26:33.394Z,7.15
2018-02-27T00:27:39.546Z,8.70
2018-02-27T00:28:45.711Z,7.18
2018-02-27T00:29:51.649Z,7.53
2018-02-27T00:30:58.467Z,6.03
2018-02-27T00:32:04.650Z,6.93
2018-02-27T00:33:10.786Z,6.57
2018-02-27T00:34:16.923Z,6.55
2018-02-27T00:35:23.031Z,6.55
2018-02-27T00:36:29.145Z,7.55
2018-02-27T00:37:35.317Z,7.35
2018-02-27T00:38:41.455Z,6.55
2018-02-27T00:39:47.813Z,6.70
2018-02-27T00:40:54.008Z,6.68
2018-02-27T00:42:00.131Z,6.78
2018-02-27T00:43:06.316Z,7.40
2018-02-27T00:44:12.248Z,6.65
2018-02-27T00:45:18.387Z,7.18
2018-02-27T00:46:24.507Z,7.18
2018-02-27T00:47:30.621Z,6.80
2018-02-27T00:48:36.747Z,6.62
2018-02-27T00:49:42.917Z,6.07
2018-02-27T00:50:49.015Z,7.05
2018-02-27T00:51:55.123Z,7.35
2018-02-27T00:53:01.269Z,6.78
2018-02-27T00:54:07.452Z,6.65
2018-02-27T00:55:14.550Z,6.50
2018-02-27T00:56:20.745Z,6.10
2018-02-27T00:57:26.954Z,6.65
2018-02-27T00:58:33.113Z,5.62
2018-02-27T00:59:39.248Z,6.72
2018-02-27T01:00:45.409Z,6.87
2018-02-27T01:01:51.228Z,6.78
2018-02-27T01:03:03.590Z,7.12
2018-02-27T01:04:10.215Z,6.60
2018-02-27T01:05:16.333Z,6.57
2018-02-27T01:06:22.495Z,7.25
2018-02-27T01:07:28.350Z,7.20
2018-02-27T01:08:34.445Z,7.30
2018-02-27T01:09:40.303Z,6.60
2018-02-27T01:10:46.458Z,7.43
2018-02-27T01:11:52.573Z,7.05
2018-02-27T01:12:58.719Z,6.78
2018-02-27T01:14:04.879Z,7.28
2018-02-27T01:15:11.031Z,7.95
2018-02-27T01:16:17.226Z,6.95
2018-02-27T01:17:23.386Z,8.27
2018-02-27T01:18:29.550Z,7.30
2018-02-27T01:19:35.902Z,7.07
2018-02-27T01:20:42.036Z,7.85
2018-02-27T01:21:48.164Z,7.97
2018-02-27T01:22:54.332Z,7.70
2018-02-27T01:24:00.451Z,7.22
2018-02-27T01:25:06.640Z,8.50
2018-02-27T01:26:12.861Z,7.65
2018-02-27T01:27:19.062Z,8.13
2018-02-27T01:28:25.193Z,7.87
2018-02-27T01:29:31.294Z,7.53
2018-02-27T01:30:37.434Z,7.05
2018-02-27T01:31:43.549Z,7.05
2018-02-27T01:32:49.694Z,7.78
2018-02-27T01:33:55.888Z,7.95
2018-02-27T01:35:02.011Z,7.62
2018-02-27T01:36:08.160Z,8.00
2018-02-27T01:37:14.306Z,6.82
2018-02-27T01:38:20.451Z,7.85
2018-02-27T01:39:26.862Z,7.70
2018-02-27T01:40:32.696Z,7.22
2018-02-27T01:41:38.805Z,7.37
2018-02-27T01:42:44.943Z,7.35
2018-02-27T01:43:51.047Z,7.85
2018-02-27T01:45:00.316Z,7.40
2018-02-27T01:46:06.509Z,7.20
2018-02-27T01:47:12.628Z,8.07
2018-02-27T01:48:18.799Z,8.77
2018-02-27T01:49:24.948Z,8.13
2018-02-27T01:50:31.664Z,8.50
2018-02-27T01:51:37.528Z,8.32
2018-02-27T01:52:43.379Z,7.90
2018-02-27T01:53:49.566Z,7.30
2018-02-27T01:54:55.687Z,7.53
2018-02-27T01:56:01.884Z,8.02
2018-02-27T01:57:09.007Z,7.57
2018-02-27T01:58:15.194Z,7.47
2018-02-27T01:59:21.308Z,9.05
2018-02-27T02:00:27.474Z,7.50
2018-02-27T02:01:32.642Z,7.47
2018-02-27T02:02:38.548Z,7.00
2018-02-27T02:03:44.681Z,7.47
2018-02-27T02:04:50.814Z,6.62
2018-02-27T02:05:56.903Z,7.43
2018-02-27T02:07:03.063Z,7.35
2018-02-27T02:08:08.904Z,7.18
2018-02-27T02:09:15.014Z,7.55
2018-02-27T02:10:20.804Z,7.30
2018-02-27T02:11:26.661Z,7.15
2018-02-27T02:12:32.824Z,7.20
2018-02-27T02:13:38.932Z,7.57
2018-02-27T02:14:45.107Z,6.82
2018-02-27T02:15:51.212Z,6.93
2018-02-27T02:16:57.399Z,7.32
2018-02-27T02:18:03.587Z,7.70
2018-02-27T02:19:09.768Z,7.30
2018-02-27T02:20:15.599Z,6.05
2018-02-27T02:21:21.754Z,5.90
2018-02-27T02:22:27.920Z,6.15
2018-02-27T02:23:34.032Z,7.60
2018-02-27T02:24:40.226Z,7.12
2018-02-27T02:25:46.393Z,6.15
2018-02-27T02:26:52.659Z,7.47
2018-02-27T02:27:58.826Z,6.82
2018-02-27T02:29:04.990Z,7.07
2018-02-27T02:30:11.137Z,7.28
2018-02-27T02:31:17.357Z,7.10
2018-02-27T02:32:23.484Z,7.60
2018-02-27T02:33:29.614Z,6.93
2018-02-27T02:34:35.516Z,6.82
2018-02-27T02:35:41.730Z,6.95
2018-02-27T02:36:47.863Z,8.30
2018-02-27T02:37:53.963Z,7.15
2018-02-27T02:39:00.122Z,6.78
2018-02-27T02:40:06.013Z,7.10
2018-02-27T02:41:12.152Z,7.40
2018-02-27T02:42:24.353Z,6.95
2018-02-27T02:43:30.525Z,7.07
2018-02-27T02:44:36.714Z,5.80
2018-02-27T02:45:42.876Z,6.70
2018-02-27T02:46:49.015Z,6.35
2018-02-27T02:47:54.936Z,6.35
2018-02-27T02:49:01.097Z,7.10
2018-02-27T02:50:07.336Z,7.35
2018-02-27T02:51:13.456Z,6.78
2018-02-27T02:52:19.598Z,6.55
2018-02-27T02:53:25.730Z,5.75
2018-02-27T02:54:31.913Z,6.72
2018-02-27T02:55:39.091Z,5.65
2018-02-27T02:56:50.194Z,7.10
2018-02-27T02:57:56.418Z,8.48
2018-02-27T02:59:02.584Z,6.80
2018-02-27T03:00:09.689Z,6.45
2018-02-27T03:01:15.823Z,6.53
2018-02-27T03:02:22.000Z,6.00
2018-02-27T03:03:28.116Z,5.50
2018-02-27T03:04:34.287Z,6.70
2018-02-27T03:05:40.451Z,7.28
2018-02-27T03:06:46.667Z,7.20
2018-02-27T03:07:52.850Z,6.97
2018-02-27T03:08:59.026Z,5.82
2018-02-27T03:10:05.171Z,7.80
2018-02-27T03:11:11.069Z,7.40
2018-02-27T03:12:17.208Z,7.03
2018-02-27T03:13:23.110Z,7.10
2018-02-27T03:14:29.278Z,8.88
2018-02-27T03:15:35.413Z,8.15
2018-02-27T03:16:41.572Z,7.05
2018-02-27T03:17:47.825Z,6.90
2018-02-27T03:18:54.016Z,7.37
2018-02-27T03:20:00.196Z,8.18
2018-02-27T03:21:06.310Z,6.95
2018-02-27T03:22:12.424Z,5.95
2018-02-27T03:23:18.569Z,7.22
2018-02-27T03:24:24.679Z,7.50
2018-02-27T03:25:32.854Z,7.05
2018-02-27T03:26:39.058Z,7.12
2018-02-27T03:27:45.275Z,6.57
2018-02-27T03:28:51.464Z,8.25
2018-02-27T03:29:57.629Z,7.53
2018-02-27T03:31:05.710Z,7.53
2018-02-27T03:32:11.864Z,7.60
2018-02-27T03:33:17.762Z,6.30
2018-02-27T03:34:23.609Z,7.22
2018-02-27T03:35:29.763Z,7.18
2018-02-27T03:36:35.902Z,7.00
2018-02-27T03:37:42.046Z,7.37
2018-02-27T03:38:48.180Z,6.90
2018-02-27T03:39:54.332Z,7.30
2018-02-27T03:41:00.527Z,7.25
2018-02-27T03:42:06.660Z,6.80
2018-02-27T03:43:12.523Z,6.50
2018-02-27T03:44:18.696Z,7.05
2018-02-27T03:45:24.641Z,7.15
2018-02-27T03:46:30.763Z,6.55
2018-02-27T03:47:36.880Z,6.65
2018-02-27T03:48:43.028Z,7.53
2018-02-27T03:49:49.183Z,6.75
2018-02-27T03:50:55.308Z,8.10
2018-02-27T03:52:01.466Z,7.28
2018-02-27T03:53:07.440Z,6.53
2018-02-27T03:54:13.606Z,7.53
2018-02-27T03:55:19.793Z,7.40
2018-02-27T03:56:25.957Z,8.60
2018-02-27T03:57:32.135Z,8.05
2018-02-27T03:58:38.347Z,9.07
2018-02-27T03:59:44.743Z,11.18
2018-02-27T04:00:51.783Z,10.30
2018-02-27T04:01:57.990Z,8.77
2018-02-27T04:03:04.351Z,8.80
2018-02-27T04:04:15.774Z,10.75
2018-02-27T04:05:21.886Z,11.95
2018-02-27T04:06:28.086Z,13.52
2018-02-27T04:07:34.263Z,10.40
2018-02-27T04:08:40.138Z,10.25
2018-02-27T04:09:46.283Z,9.48
2018-02-27T04:10:54.620Z,10.80
2018-02-27T04:12:00.844Z,11.50
2018-02-27T04:13:07.016Z,10.63
2018-02-27T04:14:13.152Z,9.18
2018-02-27T04:15:19.435Z,10.50
2018-02-27T04:16:25.575Z,7.70
2018-02-27T04:17:31.735Z,10.15
2018-02-27T04:18:37.891Z,9.38
2018-02-27T04:19:44.047Z,8.88
2018-02-27T04:20:50.266Z,8.35
2018-02-27T04:21:56.395Z,9.18
2018-02-27T04:23:03.801Z,7.37
2018-02-27T04:24:09.977Z,7.60
2018-02-27T04:25:16.173Z,7.18
2018-02-27T04:26:22.645Z,6.95
2018-02-27T04:27:28.950Z,7.15
2018-02-27T04:28:35.162Z,7.12
2018-02-27T04:29:41.306Z,6.28
2018-02-27T04:30:47.496Z,7.87
2018-02-27T04:31:53.659Z,6.25
2018-02-27T04:32:59.856Z,6.90
2018-02-27T04:34:06.069Z,6.37
2018-02-27T04:35:22.335Z,6.82
2018-02-27T04:36:28.558Z,6.87
2018-02-27T04:37:34.924Z,6.60
2018-02-27T04:38:41.195Z,5.87
2018-02-27T04:39:48.018Z,6.62
2018-02-27T04:40:54.193Z,6.30
2018-02-27T04:42:00.392Z,7.03
2018-02-27T04:43:06.578Z,7.30
2018-02-27T04:44:12.804Z,7.55
2018-02-27T04:45:18.941Z,6.82
2018-02-27T04:46:28.183Z,6.80
2018-02-27T04:47:34.393Z,5.62
2018-02-27T04:48:40.687Z,5.97
2018-02-27T04:49:47.019Z,6.20
2018-02-27T04:50:53.138Z,6.62
2018-02-27T04:51:59.376Z,7.53
2018-02-27T04:53:05.520Z,5.93
2018-02-27T04:54:11.660Z,6.47
2018-02-27T04:55:22.895Z,6.75
2018-02-27T04:56:29.027Z,6.43
2018-02-27T04:57:35.269Z,6.75
2018-02-27T04:58:41.474Z,6.95
2018-02-27T04:59:47.690Z,6.45
2018-02-27T05:00:53.898Z,6.10
2018-02-27T05:02:00.077Z,5.25
2018-02-27T05:03:06.282Z,6.80
2018-02-27T05:04:12.599Z,6.35
2018-02-27T05:05:18.782Z,6.43
2018-02-27T05:06:24.937Z,6.80
2018-02-27T05:07:31.087Z,5.80
2018-02-27T05:08:37.232Z,6.45
2018-02-27T05:09:43.116Z,6.30
2018-02-27T05:10:49.644Z,6.32
2018-02-27T05:11:55.776Z,4.95
2018-02-27T05:13:01.920Z,6.68
2018-02-27T05:14:08.158Z,7.05
2018-02-27T05:15:14.328Z,6.82
2018-02-27T05:16:20.545Z,6.32
2018-02-27T05:17:26.666Z,6.62
2018-02-27T05:18:32.782Z,6.80
2018-02-27T05:19:38.932Z,6.20
2018-02-27T05:20:45.123Z,5.93
2018-02-27T05:21:51.309Z,6.85
2018-02-27T05:22:57.522Z,5.97
2018-02-27T05:24:03.748Z,7.20
2018-02-27T05:25:09.883Z,6.87
2018-02-27T05:26:16.023Z,7.45
2018-02-27T05:27:22.263Z,6.28
2018-02-27T05:28:32.320Z,5.90
2018-02-27T05:29:38.556Z,6.93
2018-02-27T05:30:44.760Z,7.35
2018-02-27T05:31:52.963Z,6.55
2018-02-27T05:32:59.148Z,6.20
2018-02-27T05:34:05.306Z,6.78
2018-02-27T05:35:11.470Z,6.80
2018-02-27T05:36:17.624Z,6.28
2018-02-27T05:37:23.811Z,6.57
2018-02-27T05:38:30.002Z,7.60
2018-02-27T05:39:36.149Z,6.53
2018-02-27T05:40:42.289Z,5.80
2018-02-27T05:41:48.855Z,6.97
2018-02-27T05:42:55.236Z,5.87
2018-02-27T05:44:01.395Z,5.87
2018-02-27T05:45:07.584Z,7.07
2018-02-27T05:46:13.745Z,7.15
2018-02-27T05:47:19.953Z,7.10
2018-02-27T05:48:26.089Z,7.87
2018-02-27T05:49:32.216Z,6.72
2018-02-27T05:50:43.695Z,6.25
2018-02-27T05:51:49.943Z,5.57
2018-02-27T05:52:56.105Z,6.45
2018-02-27T05:54:02.524Z,6.65
2018-02-27T05:55:08.677Z,6.80
2018-02-27T05:56:14.991Z,6.12
2018-02-27T05:57:21.149Z,6.40
2018-02-27T05:58:27.334Z,6.25
2018-02-27T05:59:33.535Z,6.78
2018-02-27T06:00:39.669Z,7.60
2018-02-27T06:01:45.714Z,7.18
2018-02-27T06:02:51.836Z,7.25
2018-02-27T06:03:57.952Z,6.53
2018-02-27T06:05:04.075Z,7.37
2018-02-27T06:06:10.293Z,7.72
2018-02-27T06:07:16.519Z,8.07
2018-02-27T06:08:22.703Z,7.32
2018-02-27T06:09:28.897Z,8.65
2018-02-27T06:10:35.052Z,8.57
2018-02-27T06:11:41.233Z,7.55
2018-02-27T06:12:47.436Z,8.98
2018-02-27T06:13:53.732Z,6.93
2018-02-27T06:14:59.859Z,8.30
2018-02-27T06:16:06.066Z,7.62
2018-02-27T06:17:12.280Z,7.85
2018-02-27T06:18:18.427Z,7.35
2018-02-27T06:19:24.594Z,8.63
2018-02-27T06:20:30.749Z,8.60
2018-02-27T06:21:37.336Z,7.78
2018-02-27T06:22:43.507Z,9.50
2018-02-27T06:23:49.692Z,9.45
2018-02-27T06:24:55.924Z,8.07
2018-02-27T06:26:02.035Z,8.85
2018-02-27T06:27:08.513Z,8.20
2018-02-27T06:28:14.752Z,8.05
2018-02-27T06:29:20.986Z,7.95
2018-02-27T06:30:27.179Z,8.57
2018-02-27T06:31:33.347Z,8.55
2018-02-27T06:32:39.511Z,9.00
2018-02-27T06:33:45.720Z,6.97
2018-02-27T06:35:00.119Z,7.05
2018-02-27T06:36:06.254Z,7.32
2018-02-27T06:37:12.208Z,7.65
2018-02-27T06:38:18.359Z,8.38
2018-02-27T06:39:24.521Z,7.35
2018-02-27T06:40:30.665Z,8.02
2018-02-27T06:41:36.839Z,7.50
2018-02-27T06:42:43.018Z,9.38
2018-02-27T06:43:49.135Z,7.78
2018-02-27T06:44:55.113Z,8.77
2018-02-27T06:46:01.441Z,7.78
2018-02-27T06:47:07.652Z,8.68
2018-02-27T06:48:14.203Z,8.68
2018-02-27T06:49:20.339Z,8.20
2018-02-27T06:50:26.564Z,8.85
2018-02-27T06:51:32.773Z,7.45
2018-02-27T06:52:38.976Z,8.65
2018-02-27T06:53:44.963Z,6.95
2018-02-27T06:54:51.190Z,9.93
2018-02-27T06:55:57.399Z,7.95
2018-02-27T06:57:05.705Z,7.20
2018-02-27T06:58:13.833Z,8.10
2018-02-27T06:59:21.829Z,8.35
2018-02-27T07:00:28.802Z,7.43
2018-02-27T07:01:36.093Z,6.82
2018-02-27T07:02:43.916Z,7.97
2018-02-27T07:03:51.352Z,8.10
2018-02-27T07:04:59.923Z,7.40
2018-02-27T07:06:08.022Z,7.87
2018-02-27T07:07:15.394Z,7.15
2018-02-27T07:08:22.381Z,7.37
2018-02-27T07:09:29.517Z,6.40
2018-02-27T07:10:36.823Z,7.82
2018-02-27T07:11:44.973Z,7.85
2018-02-27T07:12:52.401Z,7.90
2018-02-27T07:13:59.403Z,7.57
2018-02-27T07:15:07.101Z,6.90
2018-02-27T07:16:14.456Z,7.30
2018-02-27T07:17:21.544Z,7.97
2018-02-27T07:18:29.783Z,15.77
2018-02-27T07:19:38.417Z,17.50
2018-02-27T07:20:45.699Z,8.40
2018-02-27T07:21:53.123Z,7.75
2018-02-27T07:23:01.683Z,8.52
2018-02-27T07:24:09.047Z,8.35
2018-02-27T07:25:16.047Z,7.50
2018-02-27T07:26:23.095Z,7.95
2018-02-27T07:27:30.113Z,8.38
2018-02-27T07:28:39.084Z,8.05
2018-02-27T07:29:47.266Z,7.60
2018-02-27T07:30:55.770Z,8.65
2018-02-27T07:32:03.776Z,8.40
2018-02-27T07:33:15.614Z,8.23
2018-02-27T07:34:23.610Z,9.15
2018-02-27T07:35:30.675Z,8.93
2018-02-27T07:36:38.433Z,9.13
2018-02-27T07:37:45.320Z,8.48
2018-02-27T07:38:52.173Z,8.48
2018-02-27T07:39:59.817Z,8.23
2018-02-27T07:41:07.962Z,10.18
2018-02-27T07:42:15.124Z,9.88
2018-02-27T07:43:22.662Z,12.45
2018-02-27T07:44:29.618Z,17.60
2018-02-27T07:45:38.050Z,13.48
2018-02-27T07:46:46.069Z,6.82
2018-02-27T07:47:52.843Z,8.25
2018-02-27T07:48:59.818Z,11.00
2018-02-27T07:50:06.736Z,8.80
2018-02-27T07:51:13.620Z,10.50
2018-02-27T07:52:22.342Z,10.25
2018-02-27T07:53:29.791Z,9.73
2018-02-27T07:54:36.849Z,12.40
2018-02-27T07:55:44.232Z,11.00
2018-02-27T07:56:51.352Z,10.85
2018-02-27T07:57:58.633Z,10.57
2018-02-27T07:59:05.979Z,9.60
2018-02-27T08:00:13.311Z,10.85
2018-02-27T08:01:20.845Z,10.88
2018-02-27T08:02:27.863Z,11.38
2018-02-27T08:03:35.212Z,10.77
2018-02-27T08:04:42.460Z,11.85
2018-02-27T08:05:53.192Z,11.70
2018-02-27T08:07:00.298Z,11.18
2018-02-27T08:08:08.824Z,12.18
2018-02-27T08:09:16.899Z,13.52
2018-02-27T08:10:24.692Z,13.55
2018-02-27T08:11:31.854Z,12.43
2018-02-27T08:12:39.263Z,14.40
2018-02-27T08:18:43.659Z,12.80
2018-02-27T08:19:49.904Z,11.55
2018-02-27T08:20:56.375Z,13.13
2018-02-27T08:22:03.436Z,13.50
2018-02-27T08:23:10.615Z,13.95
2018-02-27T08:24:17.627Z,14.55
2018-02-27T08:35:21.923Z,12.68
2018-02-27T08:36:28.171Z,12.90
2018-02-27T08:37:34.383Z,12.70
2018-02-27T08:39:02.655Z,13.65
2018-02-27T08:40:10.165Z,12.18
2018-02-27T08:41:18.297Z,11.95
2018-02-27T08:42:25.699Z,11.77
2018-02-27T08:43:33.528Z,12.98
2018-02-27T08:44:41.523Z,12.32
2018-02-27T08:45:49.983Z,13.02
2018-02-27T08:46:57.484Z,12.88
2018-02-27T08:48:05.264Z,19.40
2018-02-27T08:49:13.635Z,15.40
2018-02-27T08:50:22.090Z,14.60
2018-02-27T08:51:30.900Z,13.30
2018-02-27T08:52:38.296Z,14.23
2018-02-27T08:53:45.790Z,13.55
2018-02-27T08:54:53.453Z,10.82
2018-02-27T08:57:34.906Z,12.57
2018-02-27T08:58:41.267Z,13.02
2018-02-27T08:59:47.612Z,23.58
2018-02-27T09:00:53.939Z,15.38
2018-02-27T09:02:00.307Z,13.25
2018-02-27T09:03:06.802Z,13.35
2018-02-27T09:04:13.120Z,13.27
2018-02-27T09:08:31.827Z,10.20
2018-02-27T09:09:37.741Z,11.77
2018-02-27T09:10:43.962Z,10.98
2018-02-27T09:11:50.174Z,12.18
2018-02-27T09:13:03.880Z,12.77
2018-02-27T09:17:26.827Z,8.13
2018-02-27T09:18:32.968Z,9.02
2018-02-27T09:19:39.093Z,9.43
2018-02-27T09:20:45.265Z,8.32
2018-02-27T09:21:51.399Z,9.95
2018-02-27T09:22:57.601Z,9.77
2018-02-27T09:24:03.780Z,9.93
2018-02-27T09:25:10.897Z,8.63
2018-02-27T09:26:17.091Z,9.93
2018-02-27T09:27:23.316Z,9.45
2018-02-27T09:28:29.503Z,8.88
2018-02-27T09:29:35.730Z,9.98
2018-02-27T09:30:41.917Z,10.40
2018-02-27T09:31:48.115Z,9.23
2018-02-27T09:32:54.315Z,9.68
2018-02-27T09:34:00.468Z,9.23
2018-02-27T09:35:06.706Z,10.52
2018-02-27T09:36:12.880Z,9.18
2018-02-27T09:37:18.781Z,11.75
2018-02-27T09:38:24.965Z,10.27
2018-02-27T09:39:31.184Z,11.10
2018-02-27T09:40:37.399Z,12.35
2018-02-27T09:41:43.837Z,11.10
2018-02-27T09:42:50.087Z,11.15
2018-02-27T09:43:56.275Z,9.75
2018-02-27T09:45:02.418Z,8.38
2018-02-27T09:46:08.849Z,10.30
2018-02-27T09:47:16.198Z,10.25
2018-02-27T09:48:23.490Z,10.68
2018-02-27T09:49:30.536Z,9.68
2018-02-27T09:50:37.398Z,10.20
2018-02-27T09:51:44.298Z,10.32
2018-02-27T09:52:51.384Z,10.50
2018-02-27T09:53:58.312Z,11.45
2018-02-27T09:55:05.114Z,11.23
2018-02-27T09:56:12.157Z,11.55
2018-02-27T09:57:19.160Z,12.00
2018-02-27T09:58:26.357Z,13.00
2018-02-27T09:59:33.690Z,11.05
2018-02-27T10:00:41.221Z,10.02
2018-02-27T10:01:48.402Z,12.63
2018-02-27T10:02:55.192Z,11.80
2018-02-27T10:04:01.958Z,10.00
2018-02-27T10:05:13.323Z,12.90
2018-02-27T10:06:19.480Z,11.65
2018-02-27T10:07:25.726Z,11.52
2018-02-27T10:08:31.889Z,9.95
2018-02-27T10:09:38.044Z,10.05
2018-02-27T10:10:44.191Z,9.98
2018-02-27T10:11:50.361Z,10.00
2018-02-27T10:12:56.576Z,10.25
2018-02-27T10:14:04.627Z,9.80
2018-02-27T10:15:11.125Z,11.40
2018-02-27T10:16:17.270Z,12.37
2018-02-27T10:17:23.435Z,11.00
2018-02-27T10:18:29.613Z,11.50
2018-02-27T10:19:35.763Z,11.25
2018-02-27T10:20:41.951Z,10.88
2018-02-27T10:21:48.135Z,11.02
2018-02-27T10:22:54.328Z,11.88
2018-02-27T10:24:00.458Z,10.82
2018-02-27T10:25:06.845Z,9.55
2018-02-27T10:26:13.047Z,9.95
2018-02-27T10:27:19.186Z,7.70
2018-02-27T10:28:25.372Z,9.15
2018-02-27T10:29:31.553Z,10.35
2018-02-27T10:30:37.796Z,9.88
2018-02-27T10:31:44.220Z,10.35
2018-02-27T10:32:50.419Z,7.68
2018-02-27T10:33:56.562Z,10.15
2018-02-27T10:35:02.699Z,10.43
2018-02-27T10:36:08.844Z,9.25
2018-02-27T10:37:14.993Z,9.93
2018-02-27T10:38:21.209Z,9.63
2018-02-27T10:39:27.435Z,7.93
2018-02-27T10:40:33.771Z,9.55
2018-02-27T10:41:39.984Z,8.35
2018-02-27T10:42:46.134Z,8.15
2018-02-27T10:43:52.785Z,8.73
2018-02-27T10:44:58.948Z,9.77
2018-02-27T10:46:11.032Z,10.10
2018-02-27T10:47:16.902Z,10.23
2018-02-27T10:48:23.052Z,9.63
2018-02-27T10:49:29.180Z,9.55
2018-02-27T10:50:35.308Z,7.62
2018-02-27T10:51:41.448Z,9.27
2018-02-27T10:52:47.701Z,9.13
2018-02-27T10:53:53.841Z,7.93
2018-02-27T10:55:00.001Z,8.07
2018-02-27T10:56:06.233Z,8.90
2018-02-27T10:57:12.398Z,7.18
2018-02-27T10:58:18.624Z,9.10
2018-02-27T10:59:24.829Z,10.30
2018-02-27T11:00:36.525Z,10.32
2018-02-27T11:01:42.509Z,9.20
2018-02-27T11:02:48.357Z,7.87
2018-02-27T11:03:54.540Z,7.22
2018-02-27T11:05:00.702Z,7.47
2018-02-27T11:06:07.058Z,8.18
2018-02-27T11:07:13.335Z,8.70
2018-02-27T11:08:19.503Z,8.93
2018-02-27T11:09:25.759Z,8.50
2018-02-27T11:10:31.912Z,7.87
2018-02-27T11:11:38.026Z,6.18
2018-02-27T11:12:44.252Z,7.57
2018-02-27T11:13:50.384Z,4.47
2018-02-27T11:14:56.549Z,6.30
2018-02-27T11:16:02.758Z,6.93
2018-02-27T11:17:08.865Z,6.25
2018-02-27T11:18:14.982Z,6.00
2018-02-27T11:19:21.147Z,6.80
2018-02-27T11:20:27.338Z,4.57
2018-02-27T11:21:33.560Z,5.22
2018-02-27T11:22:39.864Z,7.05
2018-02-27T11:23:46.022Z,6.20
2018-02-27T11:24:52.199Z,5.78
2018-02-27T11:25:58.325Z,5.60
2018-02-27T11:27:04.531Z,5.30
2018-02-27T11:28:10.663Z,2.65
2018-02-27T11:29:16.965Z,4.90
2018-02-27T11:30:23.189Z,4.82
2018-02-27T11:31:29.322Z,4.82
2018-02-27T11:32:35.520Z,4.87
2018-02-27T11:33:45.609Z,6.10
2018-02-27T11:34:51.731Z,5.47
2018-02-27T11:35:57.892Z,6.30
2018-02-27T11:37:04.016Z,6.10
2018-02-27T11:38:10.173Z,6.80
2018-02-27T11:39:16.300Z,6.12
2018-02-27T11:40:22.429Z,5.78
2018-02-27T11:41:28.547Z,6.55
2018-02-27T11:42:34.756Z,5.40
2018-02-27T11:43:40.851Z,5.03
2018-02-27T11:44:46.958Z,5.80
2018-02-27T11:45:53.088Z,5.95
2018-02-27T11:46:59.244Z,6.28
2018-02-27T11:48:05.417Z,7.85
2018-02-27T11:49:11.610Z,6.87
2018-02-27T11:50:17.478Z,7.07
2018-02-27T11:51:23.578Z,5.72
2018-02-27T11:52:29.724Z,5.37
2018-02-27T11:53:35.866Z,5.70
2018-02-27T11:54:41.999Z,6.07
2018-02-27T11:55:48.145Z,5.57
2018-02-27T11:56:54.284Z,5.07
2018-02-27T11:58:00.396Z,5.03
2018-02-27T11:59:06.525Z,4.80
2018-02-27T12:00:12.681Z,4.57
2018-02-27T12:01:18.822Z,4.18
2018-02-27T12:02:27.966Z,5.20
2018-02-27T12:03:34.040Z,5.25
2018-02-27T12:04:40.167Z,5.00
2018-02-27T12:05:46.322Z,5.55
2018-02-27T12:06:52.484Z,4.75
2018-02-27T12:07:58.596Z,3.80
2018-02-27T12:09:03.875Z,4.10
2018-02-27T12:10:09.402Z,4.30
2018-02-27T12:11:15.593Z,4.00
2018-02-27T12:12:21.724Z,3.15
2018-02-27T12:13:27.862Z,3.47
2018-02-27T12:14:33.998Z,4.60
2018-02-27T12:15:40.152Z,3.72
2018-02-27T12:16:46.301Z,4.07
2018-02-27T12:17:52.440Z,4.37
2018-02-27T12:18:58.916Z,4.30
2018-02-27T12:20:04.703Z,5.12
2018-02-27T12:21:10.812Z,3.67
2018-02-27T12:22:16.925Z,4.45
2018-02-27T12:23:23.219Z,4.78
2018-02-27T12:24:29.438Z,4.28
2018-02-27T12:27:08.811Z,3.25
2018-02-27T12:28:15.012Z,5.55
2018-02-27T12:32:42.893Z,4.40
2018-02-27T12:33:49.032Z,4.22
2018-02-27T12:34:55.164Z,4.60
2018-02-27T12:36:01.885Z,3.75
2018-02-27T12:37:08.048Z,4.10
2018-02-27T12:38:14.215Z,4.18
2018-02-27T12:39:20.383Z,4.30
2018-02-27T12:40:26.533Z,4.30
2018-02-27T12:41:32.762Z,4.65
2018-02-27T12:42:39.104Z,3.87
2018-02-27T12:43:45.221Z,4.43
2018-02-27T12:44:51.368Z,3.55
2018-02-27T12:45:57.489Z,4.97
2018-02-27T12:47:03.623Z,4.60
2018-02-27T12:48:09.881Z,5.43
2018-02-27T12:49:16.205Z,3.83
2018-02-27T12:50:22.394Z,4.18
2018-02-27T12:51:28.225Z,3.80
2018-02-27T12:52:34.323Z,3.80
2018-02-27T12:53:40.506Z,4.70
2018-02-27T12:54:46.719Z,4.80
2018-02-27T12:55:52.874Z,4.03
2018-02-27T12:56:59.003Z,4.03
2018-02-27T12:58:05.348Z,4.62
2018-02-27T12:59:11.529Z,3.95
2018-02-27T13:00:17.720Z,4.55
2018-02-27T13:01:23.843Z,3.83
2018-02-27T13:02:30.004Z,4.10
2018-02-27T13:03:36.295Z,4.97
2018-02-27T13:04:42.461Z,4.75
2018-02-27T13:05:48.582Z,4.60
2018-02-27T13:06:54.756Z,4.93
2018-02-27T13:08:00.918Z,4.90
2018-02-27T13:09:07.053Z,3.78
2018-02-27T13:10:13.169Z,3.92
2018-02-27T13:11:19.241Z,4.55
2018-02-27T13:12:25.404Z,6.47
2018-02-27T13:13:31.558Z,4.65
2018-02-27T13:14:38.587Z,4.62
2018-02-27T13:15:44.770Z,4.50
2018-02-27T13:16:51.002Z,4.07
2018-02-27T13:17:57.134Z,4.85
2018-02-27T13:19:03.324Z,3.42
2018-02-27T13:20:09.489Z,4.78
2018-02-27T13:21:15.692Z,3.90
2018-02-27T13:22:21.807Z,3.70
2018-02-27T13:23:27.950Z,3.87
2018-02-27T13:24:34.268Z,3.90
2018-02-27T13:25:40.498Z,4.70
2018-02-27T13:26:46.684Z,3.45
2018-02-27T13:27:52.905Z,4.30
2018-02-27T13:29:03.143Z,4.90
2018-02-27T13:30:09.302Z,4.30
2018-02-27T13:31:16.466Z,4.00
2018-02-27T13:32:22.618Z,4.05
2018-02-27T13:33:28.767Z,3.83
2018-02-27T13:34:34.891Z,3.90
2018-02-27T13:35:40.658Z,4.00
2018-02-27T13:36:46.776Z,4.65
2018-02-27T13:37:52.778Z,4.68
2018-02-27T13:38:59.114Z,4.00
2018-02-27T13:40:05.295Z,3.80
2018-02-27T13:41:11.637Z,3.00
2018-02-27T13:42:17.882Z,3.35
2018-02-27T13:43:24.160Z,3.55
2018-02-27T13:44:30.331Z,3.92
2018-02-27T13:45:36.535Z,3.87
2018-02-27T13:46:42.658Z,3.60
2018-02-27T13:47:48.923Z,4.22
2018-02-27T13:48:55.174Z,3.47
2018-02-27T13:50:01.390Z,3.00
2018-02-27T13:51:07.842Z,4.03
2018-02-27T13:52:14.109Z,3.85
2018-02-27T13:53:20.462Z,3.33
2018-02-27T13:54:26.564Z,4.35
2018-02-27T13:55:32.712Z,3.40
2018-02-27T13:56:39.118Z,3.78
2018-02-27T13:57:45.336Z,3.05
2018-02-27T13:58:51.495Z,3.78
2018-02-27T13:59:57.661Z,3.58
2018-02-27T14:01:03.448Z,4.70
2018-02-27T14:02:10.572Z,2.95
2018-02-27T14:03:16.759Z,3.83
2018-02-27T14:04:22.899Z,3.28
2018-02-27T14:05:29.304Z,3.67
2018-02-27T14:06:36.256Z,4.20
2018-02-27T14:07:45.813Z,3.70
2018-02-27T14:08:52.262Z,3.80
2018-02-27T14:09:58.416Z,4.05
2018-02-27T14:11:04.563Z,3.78
2018-02-27T14:12:10.659Z,3.92
2018-02-27T14:13:16.762Z,4.20
2018-02-27T14:14:23.158Z,4.25
2018-02-27T14:15:29.284Z,4.37
2018-02-27T14:16:35.445Z,3.40
2018-02-27T14:17:41.629Z,3.25
2018-02-27T14:18:48.182Z,3.75
2018-02-27T14:19:57.256Z,3.15
2018-02-27T14:21:03.493Z,3.12
2018-02-27T14:22:09.388Z,3.97
2018-02-27T14:23:15.524Z,4.32
2018-02-27T14:24:21.633Z,4.05
2018-02-27T14:25:27.797Z,4.40
2018-02-27T14:26:33.980Z,4.00
2018-02-27T14:27:40.162Z,5.05
2018-02-27T14:28:46.264Z,3.70
2018-02-27T14:29:52.419Z,2.85
2018-02-27T14:30:57.908Z,3.45
2018-02-27T14:32:06.999Z,3.60
2018-02-27T14:33:13.136Z,4.82
2018-02-27T14:34:18.960Z,3.75
2018-02-27T14:35:25.070Z,3.92
2018-02-27T14:36:31.273Z,4.20
2018-02-27T14:37:37.171Z,3.90
2018-02-27T14:38:43.945Z,4.78
2018-02-27T14:39:50.131Z,4.05
2018-02-27T14:40:56.436Z,4.18
2018-02-27T14:42:02.597Z,4.05
2018-02-27T14:43:08.700Z,4.28
2018-02-27T14:44:14.893Z,4.65
2018-02-27T14:45:20.819Z,4.00
2018-02-27T14:46:31.004Z,4.40
2018-02-27T14:47:37.129Z,4.37
2018-02-27T14:48:43.222Z,4.28
2018-02-27T14:49:49.358Z,4.15
2018-02-27T14:50:55.499Z,4.40
2018-02-27T14:52:01.655Z,4.72
2018-02-27T14:53:07.765Z,4.50
2018-02-27T14:54:13.868Z,5.05
2018-02-27T14:55:19.974Z,5.32
2018-02-27T14:56:26.748Z,5.15
2018-02-27T14:57:32.972Z,4.30
2018-02-27T14:58:45.078Z,4.37
2018-02-27T14:59:51.241Z,4.15
2018-02-27T15:00:57.473Z,3.80
2018-02-27T15:02:03.660Z,5.35
2018-02-27T15:03:09.865Z,4.20
2018-02-27T15:04:16.105Z,4.45
2018-02-27T15:05:27.315Z,3.95
2018-02-27T15:06:33.481Z,3.85
2018-02-27T15:07:39.630Z,5.03
2018-02-27T15:08:45.769Z,4.72